ARG1871 SAWH-SABE
Flight info
| Callsign | ARG1871 |
|---|---|
| Flight time | 3h 8m |
| Altitude | 35000 |
| Route | GRA2A GRA UT662 SUSDA/N0475F370 UT662 DIL UZ117 GBE GBE8R |
| Aircraft | B738/M-SDE2E3FGHIRWXY/LB1 |
Departure
| Time | 2026-05-07 18:03 |
|---|---|
| Airport | Ushuaia - Malvinas Argentinas International Airport (SAWH) |
Arrival
| Time | 2026-05-07 21:11 |
|---|---|
| Airport | Aeroparque Jorge Newbery (SABE) |
| Time | Latitude | Longitude | Altitude | Speed | Heading |
|---|---|---|---|---|---|
| 2026-05-07 17:31 | -54.84028 | -68.31252 | 81 ft | 0 kts | 20° |
| 2026-05-07 17:54 | -54.84049 | -68.31265 | 88 ft | 4 kts | 13° |
| 2026-05-07 17:54 | -54.84075 | -68.31270 | 81 ft | 4 kts | 349° |
| 2026-05-07 17:55 | -54.84094 | -68.31254 | 81 ft | 4 kts | 283° |
| 2026-05-07 17:55 | -54.84095 | -68.31213 | 85 ft | 4 kts | 268° |
| 2026-05-07 17:55 | -54.84094 | -68.31178 | 81 ft | 0 kts | 267° |
| 2026-05-07 17:59 | -54.84095 | -68.31226 | 83 ft | 8 kts | 267° |
| 2026-05-07 17:59 | -54.84110 | -68.31317 | 85 ft | 8 kts | 224° |
| 2026-05-07 17:59 | -54.84164 | -68.31330 | 83 ft | 8 kts | 178° |
| 2026-05-07 18:00 | -54.84218 | -68.31325 | 84 ft | 8 kts | 177° |
| 2026-05-07 18:00 | -54.84269 | -68.31320 | 85 ft | 7 kts | 177° |
| 2026-05-07 18:00 | -54.84319 | -68.31316 | 84 ft | 7 kts | 176° |
| 2026-05-07 18:00 | -54.84367 | -68.31313 | 87 ft | 7 kts | 187° |
| 2026-05-07 18:01 | -54.84402 | -68.31382 | 87 ft | 10 kts | 262° |
| 2026-05-07 18:01 | -54.84407 | -68.31520 | 194 ft | 12 kts | 268° |
| 2026-05-07 18:01 | -54.84380 | -68.31634 | 158 ft | 10 kts | 302° |
| 2026-05-07 18:01 | -54.84388 | -68.31704 | 143 ft | 7 kts | 192° |
| 2026-05-07 18:02 | -54.84410 | -68.31622 | 81 ft | 4 kts | 86° |
| 2026-05-07 18:02 | -54.84404 | -68.31463 | 189 ft | 34 kts | 86° |
| 2026-05-07 18:02 | -54.84372 | -68.30620 | 80 ft | 103 kts | 86° |
| 2026-05-07 18:03 | -54.84310 | -68.29045 | 87 ft | 157 kts | 87° |
| 2026-05-07 18:03 | -54.84220 | -68.27027 | 563 ft | 165 kts | 86° |
| 2026-05-07 18:03 | -54.84144 | -68.25022 | 1217 ft | 172 kts | 96° |
| 2026-05-07 18:03 | -54.84656 | -68.23034 | 1446 ft | 201 kts | 129° |
| 2026-05-07 18:04 | -54.85361 | -68.20801 | 1698 ft | 222 kts | 103° |
| 2026-05-07 18:04 | -54.85707 | -68.18126 | 2215 ft | 232 kts | 105° |
| 2026-05-07 18:04 | -54.86165 | -68.15315 | 2710 ft | 246 kts | 107° |
| 2026-05-07 18:04 | -54.86646 | -68.12501 | 3552 ft | 249 kts | 107° |
| 2026-05-07 18:05 | -54.87151 | -68.09572 | 4417 ft | 251 kts | 107° |
| 2026-05-07 18:05 | -54.87646 | -68.06697 | 5262 ft | 254 kts | 108° |
| 2026-05-07 18:05 | -54.88157 | -68.03725 | 6032 ft | 260 kts | 108° |
| 2026-05-07 18:05 | -54.88681 | -68.00679 | 6784 ft | 266 kts | 107° |
| 2026-05-07 18:06 | -54.89213 | -67.97571 | 7540 ft | 270 kts | 108° |
| 2026-05-07 18:06 | -54.89752 | -67.94413 | 8301 ft | 275 kts | 108° |
| 2026-05-07 18:06 | -54.90299 | -67.91208 | 9058 ft | 279 kts | 108° |
| 2026-05-07 18:06 | -54.90754 | -67.87904 | 9804 ft | 286 kts | 94° |
| 2026-05-07 18:07 | -54.90488 | -67.84458 | 10490 ft | 293 kts | 72° |
| 2026-05-07 18:07 | -54.89589 | -67.81156 | 10743 ft | 315 kts | 56° |
| 2026-05-07 18:07 | -54.87998 | -67.78374 | 10930 ft | 337 kts | 33° |
| 2026-05-07 18:07 | -54.85936 | -67.76194 | 11122 ft | 358 kts | 30° |
| 2026-05-07 18:08 | -54.83693 | -67.74070 | 11276 ft | 377 kts | 20° |
| 2026-05-07 18:08 | -54.81075 | -67.73290 | 11518 ft | 389 kts | 358° |
| 2026-05-07 18:08 | -54.78354 | -67.73414 | 12129 ft | 393 kts | 357° |
| 2026-05-07 18:08 | -54.75615 | -67.73525 | 12794 ft | 396 kts | 358° |
| 2026-05-07 18:09 | -54.72851 | -67.73613 | 13418 ft | 399 kts | 358° |
| 2026-05-07 18:09 | -54.70065 | -67.73679 | 14150 ft | 400 kts | 358° |
| 2026-05-07 18:09 | -54.67283 | -67.73727 | 14849 ft | 400 kts | 358° |
| 2026-05-07 18:09 | -54.64500 | -67.73765 | 15460 ft | 401 kts | 358° |
| 2026-05-07 18:10 | -54.61698 | -67.73796 | 16074 ft | 403 kts | 358° |
| 2026-05-07 18:10 | -54.58893 | -67.73825 | 16682 ft | 404 kts | 358° |
| 2026-05-07 18:10 | -54.56074 | -67.73853 | 17294 ft | 405 kts | 358° |
| 2026-05-07 18:10 | -54.53249 | -67.73880 | 17885 ft | 407 kts | 358° |
| 2026-05-07 18:11 | -54.50409 | -67.73907 | 18466 ft | 408 kts | 358° |
| 2026-05-07 18:11 | -54.48489 | -67.73927 | 18787 ft | 410 kts | 358° |
| 2026-05-07 18:11 | -54.44693 | -67.73964 | 19348 ft | 415 kts | 358° |
| 2026-05-07 18:11 | -54.41796 | -67.73991 | 19781 ft | 418 kts | 358° |
| 2026-05-07 18:12 | -54.39823 | -67.74010 | 20060 ft | 420 kts | 358° |
| 2026-05-07 18:12 | -54.36934 | -67.74037 | 20486 ft | 422 kts | 358° |
| 2026-05-07 18:12 | -54.33986 | -67.74065 | 20894 ft | 425 kts | 358° |
| 2026-05-07 18:12 | -54.31019 | -67.74094 | 21306 ft | 428 kts | 358° |
| 2026-05-07 18:13 | -54.28029 | -67.74122 | 21701 ft | 431 kts | 358° |
| 2026-05-07 18:13 | -54.25026 | -67.74151 | 22082 ft | 433 kts | 358° |
| 2026-05-07 18:13 | -54.21998 | -67.74180 | 22479 ft | 436 kts | 358° |
| 2026-05-07 18:13 | -54.18964 | -67.74209 | 22909 ft | 437 kts | 358° |
| 2026-05-07 18:14 | -54.15885 | -67.74239 | 23398 ft | 437 kts | 358° |
| 2026-05-07 18:14 | -54.12881 | -67.74268 | 23723 ft | 440 kts | 358° |
| 2026-05-07 18:14 | -54.09807 | -67.74296 | 23966 ft | 443 kts | 358° |
| 2026-05-07 18:14 | -54.06709 | -67.74326 | 24224 ft | 446 kts | 358° |
| 2026-05-07 18:15 | -54.03599 | -67.74355 | 24483 ft | 449 kts | 358° |
| 2026-05-07 18:15 | -54.00467 | -67.74384 | 24727 ft | 451 kts | 358° |
| 2026-05-07 18:15 | -53.97321 | -67.74414 | 25013 ft | 453 kts | 358° |
| 2026-05-07 18:15 | -53.94165 | -67.74444 | 25272 ft | 455 kts | 359° |
| 2026-05-07 18:16 | -53.90980 | -67.74474 | 25465 ft | 459 kts | 358° |
| 2026-05-07 18:16 | -53.87796 | -67.74504 | 25822 ft | 457 kts | 358° |
| 2026-05-07 18:16 | -53.84615 | -67.74533 | 26156 ft | 457 kts | 358° |
| 2026-05-07 18:16 | -53.81430 | -67.74563 | 26494 ft | 457 kts | 359° |
| 2026-05-07 18:17 | -53.78246 | -67.74360 | 26746 ft | 460 kts | 8° |
| 2026-05-07 18:17 | -53.75197 | -67.72752 | 27249 ft | 461 kts | 24° |
| 2026-05-07 18:17 | -53.72370 | -67.70183 | 27569 ft | 463 kts | 27° |
| 2026-05-07 18:17 | -53.69555 | -67.67514 | 27765 ft | 467 kts | 27° |
| 2026-05-07 18:18 | -53.66715 | -67.64820 | 28021 ft | 468 kts | 28° |
| 2026-05-07 18:18 | -53.63873 | -67.62148 | 28403 ft | 466 kts | 27° |
| 2026-05-07 18:18 | -53.61047 | -67.59515 | 28933 ft | 462 kts | 26° |
| 2026-05-07 18:18 | -53.58228 | -67.56924 | 29268 ft | 463 kts | 26° |
| 2026-05-07 18:19 | -53.55390 | -67.54328 | 29475 ft | 466 kts | 27° |
| 2026-05-07 18:19 | -53.52538 | -67.51728 | 29718 ft | 467 kts | 27° |
| 2026-05-07 18:19 | -53.49683 | -67.49136 | 30073 ft | 466 kts | 27° |
| 2026-05-07 18:19 | -53.46828 | -67.46548 | 30348 ft | 467 kts | 26° |
| 2026-05-07 18:20 | -53.43967 | -67.43952 | 30557 ft | 468 kts | 26° |
| 2026-05-07 18:20 | -53.41104 | -67.41357 | 30798 ft | 468 kts | 27° |
| 2026-05-07 18:20 | -53.38235 | -67.38762 | 31028 ft | 469 kts | 27° |
| 2026-05-07 18:20 | -53.35361 | -67.36167 | 31204 ft | 471 kts | 26° |
| 2026-05-07 18:21 | -53.32483 | -67.33575 | 31660 ft | 463 kts | 25° |
| 2026-05-07 18:21 | -53.29694 | -67.31061 | 32466 ft | 452 kts | 26° |
| 2026-05-07 18:21 | -53.26917 | -67.28565 | 32546 ft | 456 kts | 27° |
| 2026-05-07 18:22 | -53.21264 | -67.23503 | 32654 ft | 466 kts | 25° |
| 2026-05-07 18:22 | -53.15536 | -67.18390 | 33028 ft | 467 kts | 27° |
| 2026-05-07 18:22 | -53.12666 | -67.15831 | 33184 ft | 469 kts | 27° |
| 2026-05-07 18:23 | -53.09785 | -67.13269 | 33418 ft | 469 kts | 27° |
| 2026-05-07 18:23 | -53.06906 | -67.10711 | 33607 ft | 470 kts | 27° |
| 2026-05-07 18:23 | -53.04016 | -67.08143 | 33767 ft | 472 kts | 27° |
| 2026-05-07 18:23 | -53.01113 | -67.05568 | 33883 ft | 473 kts | 26° |
| 2026-05-07 18:24 | -52.98232 | -67.03014 | 34352 ft | 466 kts | 27° |
| 2026-05-07 18:24 | -52.95370 | -67.00489 | 34513 ft | 468 kts | 27° |
| 2026-05-07 18:24 | -52.92490 | -66.97952 | 34602 ft | 470 kts | 26° |
| 2026-05-07 18:25 | -52.86690 | -66.92840 | 34838 ft | 473 kts | 27° |
| 2026-05-07 18:25 | -52.83788 | -66.90288 | 35049 ft | 471 kts | 27° |
| 2026-05-07 18:25 | -52.80889 | -66.87745 | 35040 ft | 474 kts | 26° |
| 2026-05-07 18:26 | -52.75045 | -66.82608 | 35051 ft | 478 kts | 27° |
| 2026-05-07 18:26 | -52.69185 | -66.77460 | 35048 ft | 476 kts | 26° |
| 2026-05-07 18:27 | -52.63342 | -66.72349 | 35036 ft | 475 kts | 26° |
| 2026-05-07 18:27 | -52.57531 | -66.67283 | 35035 ft | 473 kts | 26° |
| 2026-05-07 18:28 | -52.51717 | -66.62229 | 35044 ft | 472 kts | 26° |
| 2026-05-07 18:28 | -52.45909 | -66.57195 | 35029 ft | 472 kts | 26° |
| 2026-05-07 18:29 | -52.40112 | -66.52186 | 35034 ft | 471 kts | 26° |
| 2026-05-07 18:29 | -52.34331 | -66.47207 | 35022 ft | 469 kts | 26° |
| 2026-05-07 18:30 | -52.28557 | -66.42247 | 35027 ft | 468 kts | 26° |
| 2026-05-07 18:30 | -52.22798 | -66.37314 | 35025 ft | 468 kts | 26° |
| 2026-05-07 18:31 | -52.17033 | -66.32391 | 35024 ft | 467 kts | 26° |
| 2026-05-07 18:31 | -52.11273 | -66.27487 | 35017 ft | 467 kts | 26° |
| 2026-05-07 18:32 | -52.05512 | -66.22597 | 35010 ft | 466 kts | 25° |
| 2026-05-07 18:32 | -51.99764 | -66.17731 | 35013 ft | 465 kts | 25° |
| 2026-05-07 18:33 | -51.94025 | -66.12887 | 35014 ft | 465 kts | 25° |
| 2026-05-07 18:33 | -51.88284 | -66.08055 | 35029 ft | 465 kts | 25° |
| 2026-05-07 18:34 | -51.82538 | -66.03231 | 35016 ft | 466 kts | 25° |
| 2026-05-07 18:34 | -51.76728 | -65.98628 | 35024 ft | 463 kts | 19° |
| 2026-05-07 18:35 | -51.70724 | -65.94992 | 35010 ft | 459 kts | 17° |
| 2026-05-07 18:35 | -51.64713 | -65.91532 | 35014 ft | 458 kts | 17° |
| 2026-05-07 18:36 | -51.58735 | -65.88028 | 35018 ft | 457 kts | 17° |
| 2026-05-07 18:36 | -51.52779 | -65.84488 | 35027 ft | 456 kts | 17° |
| 2026-05-07 18:37 | -51.46824 | -65.80936 | 35016 ft | 457 kts | 17° |
| 2026-05-07 18:37 | -51.40863 | -65.77386 | 35015 ft | 457 kts | 18° |
| 2026-05-07 18:38 | -51.34897 | -65.73850 | 35027 ft | 458 kts | 18° |
| 2026-05-07 18:38 | -51.28907 | -65.70311 | 35029 ft | 460 kts | 17° |
| 2026-05-07 18:39 | -51.22937 | -65.66790 | 35016 ft | 461 kts | 18° |
| 2026-05-07 18:39 | -51.16908 | -65.63245 | 35022 ft | 462 kts | 17° |
| 2026-05-07 18:40 | -51.10864 | -65.59701 | 35017 ft | 463 kts | 17° |
| 2026-05-07 18:40 | -51.04818 | -65.56170 | 35023 ft | 463 kts | 17° |
| 2026-05-07 18:41 | -50.98775 | -65.52646 | 35028 ft | 463 kts | 17° |
| 2026-05-07 18:41 | -50.92731 | -65.49132 | 35028 ft | 462 kts | 17° |
| 2026-05-07 18:42 | -50.86703 | -65.45636 | 35018 ft | 461 kts | 17° |
| 2026-05-07 18:42 | -50.80686 | -65.42158 | 35025 ft | 460 kts | 17° |
| 2026-05-07 18:43 | -50.74679 | -65.38693 | 35019 ft | 459 kts | 17° |
| 2026-05-07 18:43 | -50.68699 | -65.35255 | 35021 ft | 456 kts | 17° |
| 2026-05-07 18:44 | -50.62750 | -65.31843 | 35020 ft | 454 kts | 17° |
| 2026-05-07 18:44 | -50.56816 | -65.28450 | 35018 ft | 453 kts | 17° |
| 2026-05-07 18:45 | -50.50890 | -65.25071 | 35030 ft | 453 kts | 17° |
| 2026-05-07 18:45 | -50.44960 | -65.21699 | 35034 ft | 454 kts | 17° |
| 2026-05-07 18:46 | -50.39019 | -65.18328 | 35027 ft | 454 kts | 17° |
| 2026-05-07 18:46 | -50.33075 | -65.14965 | 35022 ft | 454 kts | 17° |
| 2026-05-07 18:47 | -50.27128 | -65.11609 | 35016 ft | 454 kts | 17° |
| 2026-05-07 18:47 | -50.21176 | -65.08260 | 35030 ft | 456 kts | 17° |
| 2026-05-07 18:48 | -50.15200 | -65.04906 | 35022 ft | 457 kts | 17° |
| 2026-05-07 18:48 | -50.09209 | -65.01552 | 35027 ft | 458 kts | 17° |
| 2026-05-07 18:49 | -50.03293 | -64.98245 | 35011 ft | 451 kts | 16° |
| 2026-05-07 18:49 | -49.97409 | -64.94968 | 35012 ft | 449 kts | 16° |
| 2026-05-07 18:50 | -49.91534 | -64.91707 | 35022 ft | 448 kts | 16° |
| 2026-05-07 18:50 | -49.85653 | -64.88450 | 35021 ft | 449 kts | 16° |
| 2026-05-07 18:51 | -49.79757 | -64.85193 | 35024 ft | 451 kts | 16° |
| 2026-05-07 18:51 | -49.73834 | -64.81929 | 35015 ft | 452 kts | 16° |
| 2026-05-07 18:52 | -49.67895 | -64.78664 | 35011 ft | 454 kts | 16° |
| 2026-05-07 18:52 | -49.61938 | -64.75399 | 35005 ft | 455 kts | 16° |
| 2026-05-07 18:53 | -49.55969 | -64.72134 | 35001 ft | 455 kts | 16° |
| 2026-05-07 18:53 | -49.50001 | -64.68878 | 35003 ft | 455 kts | 16° |
| 2026-05-07 18:54 | -49.44036 | -64.65633 | 34984 ft | 455 kts | 16° |
| 2026-05-07 18:54 | -49.38076 | -64.62398 | 34988 ft | 453 kts | 16° |
| 2026-05-07 18:55 | -49.33153 | -64.59733 | 34990 ft | 450 kts | 16° |
| 2026-05-07 18:55 | -49.27259 | -64.56550 | 34990 ft | 448 kts | 16° |
| 2026-05-07 18:56 | -49.21384 | -64.53385 | 34991 ft | 447 kts | 16° |
| 2026-05-07 18:56 | -49.15511 | -64.50230 | 34981 ft | 448 kts | 16° |
| 2026-05-07 18:57 | -49.09577 | -64.47052 | 34974 ft | 456 kts | 16° |
| 2026-05-07 18:57 | -49.03590 | -64.43851 | 34973 ft | 456 kts | 16° |
| 2026-05-07 18:58 | -48.97602 | -64.40656 | 34975 ft | 455 kts | 16° |
| 2026-05-07 18:58 | -48.91626 | -64.37477 | 34976 ft | 455 kts | 16° |
| 2026-05-07 18:59 | -48.85657 | -64.34309 | 34958 ft | 455 kts | 16° |
| 2026-05-07 18:59 | -48.79671 | -64.31142 | 34965 ft | 455 kts | 16° |
| 2026-05-07 19:00 | -48.73688 | -64.27983 | 34958 ft | 455 kts | 15° |
| 2026-05-07 19:00 | -48.67715 | -64.24839 | 34957 ft | 454 kts | 15° |
| 2026-05-07 19:01 | -48.61750 | -64.21706 | 34941 ft | 454 kts | 15° |
| 2026-05-07 19:01 | -48.55849 | -64.18614 | 34939 ft | 454 kts | 15° |
| 2026-05-07 19:02 | -48.49876 | -64.15492 | 34941 ft | 455 kts | 15° |
| 2026-05-07 19:02 | -48.43901 | -64.12376 | 34924 ft | 455 kts | 15° |
| 2026-05-07 19:03 | -48.37942 | -64.09275 | 34921 ft | 451 kts | 15° |
| 2026-05-07 19:03 | -48.32018 | -64.06202 | 34898 ft | 451 kts | 15° |
| 2026-05-07 19:04 | -48.26046 | -64.03114 | 34924 ft | 457 kts | 15° |
| 2026-05-07 19:04 | -48.19998 | -63.99995 | 34922 ft | 461 kts | 15° |
| 2026-05-07 19:05 | -48.13918 | -63.96866 | 34909 ft | 463 kts | 15° |
| 2026-05-07 19:05 | -48.07831 | -63.93738 | 34909 ft | 463 kts | 15° |
| 2026-05-07 19:06 | -48.01747 | -63.90619 | 34898 ft | 462 kts | 15° |
| 2026-05-07 19:06 | -47.92650 | -63.85972 | 34891 ft | 460 kts | 15° |
| 2026-05-07 19:07 | -47.86599 | -63.82890 | 34893 ft | 459 kts | 15° |
| 2026-05-07 19:07 | -47.80566 | -63.79825 | 34859 ft | 458 kts | 15° |
| 2026-05-07 19:08 | -47.74537 | -63.76770 | 34869 ft | 457 kts | 15° |
| 2026-05-07 19:08 | -47.68517 | -63.73728 | 34868 ft | 457 kts | 15° |
| 2026-05-07 19:09 | -47.62490 | -63.70689 | 34870 ft | 457 kts | 15° |
| 2026-05-07 19:09 | -47.56459 | -63.67655 | 34854 ft | 458 kts | 15° |
| 2026-05-07 19:10 | -47.50422 | -63.64626 | 34834 ft | 458 kts | 15° |
| 2026-05-07 19:10 | -47.44383 | -63.61602 | 34830 ft | 458 kts | 15° |
| 2026-05-07 19:11 | -47.38344 | -63.58587 | 34828 ft | 458 kts | 15° |
| 2026-05-07 19:11 | -47.32300 | -63.55576 | 34831 ft | 458 kts | 15° |
| 2026-05-07 19:12 | -47.26262 | -63.52575 | 34801 ft | 459 kts | 15° |
| 2026-05-07 19:12 | -47.20246 | -63.49591 | 34814 ft | 460 kts | 14° |
| 2026-05-07 19:13 | -47.14198 | -63.46598 | 34787 ft | 457 kts | 15° |
| 2026-05-07 19:13 | -47.08183 | -63.43634 | 34787 ft | 455 kts | 14° |
| 2026-05-07 19:14 | -47.02196 | -63.40688 | 34773 ft | 453 kts | 15° |
| 2026-05-07 19:14 | -46.96215 | -63.37750 | 34761 ft | 454 kts | 15° |
| 2026-05-07 19:15 | -46.90224 | -63.34815 | 34763 ft | 455 kts | 15° |
| 2026-05-07 19:15 | -46.84216 | -63.31875 | 34758 ft | 455 kts | 14° |
| 2026-05-07 19:16 | -46.78219 | -63.28951 | 34744 ft | 453 kts | 15° |
| 2026-05-07 19:16 | -46.72238 | -63.26045 | 34730 ft | 453 kts | 15° |
| 2026-05-07 19:17 | -46.66241 | -63.23138 | 34740 ft | 455 kts | 15° |
| 2026-05-07 19:17 | -46.60233 | -63.20232 | 34737 ft | 456 kts | 15° |
| 2026-05-07 19:18 | -46.54221 | -63.17325 | 34708 ft | 452 kts | 14° |
| 2026-05-07 19:18 | -46.48294 | -63.14465 | 34703 ft | 449 kts | 14° |
| 2026-05-07 19:19 | -46.42315 | -63.11591 | 34720 ft | 456 kts | 15° |
| 2026-05-07 19:19 | -46.36247 | -63.08685 | 34714 ft | 461 kts | 15° |
| 2026-05-07 19:20 | -46.30140 | -63.05760 | 34705 ft | 463 kts | 14° |
| 2026-05-07 19:20 | -46.24059 | -63.02851 | 34671 ft | 455 kts | 14° |
| 2026-05-07 19:21 | -46.18058 | -62.99993 | 34689 ft | 455 kts | 15° |
| 2026-05-07 19:21 | -46.12028 | -62.97124 | 34693 ft | 458 kts | 15° |
| 2026-05-07 19:22 | -46.05992 | -62.94264 | 34687 ft | 461 kts | 14° |
| 2026-05-07 19:22 | -45.99842 | -62.91357 | 34680 ft | 463 kts | 13° |
| 2026-05-07 19:23 | -45.93821 | -62.88510 | 34650 ft | 452 kts | 15° |
| 2026-05-07 19:23 | -45.87841 | -62.85698 | 34663 ft | 447 kts | 14° |
| 2026-05-07 19:24 | -45.81934 | -62.82921 | 34661 ft | 447 kts | 13° |
| 2026-05-07 19:24 | -45.76059 | -62.80168 | 34660 ft | 447 kts | 14° |
| 2026-05-07 19:25 | -45.70128 | -62.77397 | 34654 ft | 452 kts | 16° |
| 2026-05-07 19:25 | -45.64133 | -62.74593 | 34658 ft | 454 kts | 14° |
| 2026-05-07 19:26 | -45.58159 | -62.71815 | 34661 ft | 449 kts | 14° |
| 2026-05-07 19:26 | -45.52229 | -62.69066 | 34657 ft | 447 kts | 15° |
| 2026-05-07 19:27 | -45.46325 | -62.66327 | 34659 ft | 446 kts | 16° |
| 2026-05-07 19:27 | -45.40418 | -62.63590 | 34651 ft | 447 kts | 13° |
| 2026-05-07 19:28 | -45.34498 | -62.60859 | 34655 ft | 447 kts | 13° |
| 2026-05-07 19:28 | -45.28564 | -62.58125 | 34651 ft | 449 kts | 14° |
| 2026-05-07 19:29 | -45.22614 | -62.55395 | 34655 ft | 451 kts | 16° |
| 2026-05-07 19:29 | -45.16620 | -62.52648 | 34662 ft | 454 kts | 16° |
| 2026-05-07 19:30 | -45.10589 | -62.49889 | 34653 ft | 457 kts | 14° |
| 2026-05-07 19:30 | -45.04524 | -62.47118 | 34654 ft | 458 kts | 14° |
| 2026-05-07 19:31 | -44.98459 | -62.44349 | 34643 ft | 459 kts | 14° |
| 2026-05-07 19:31 | -44.92362 | -62.41587 | 34642 ft | 461 kts | 13° |
| 2026-05-07 19:32 | -44.86233 | -62.38812 | 34652 ft | 464 kts | 15° |
| 2026-05-07 19:32 | -44.80076 | -62.36035 | 34645 ft | 464 kts | 14° |
| 2026-05-07 19:33 | -44.73926 | -62.33267 | 34632 ft | 464 kts | 15° |
| 2026-05-07 19:33 | -44.67769 | -62.30502 | 34648 ft | 465 kts | 13° |
| 2026-05-07 19:34 | -44.61598 | -62.27725 | 34638 ft | 466 kts | 15° |
| 2026-05-07 19:34 | -44.55422 | -62.24962 | 34649 ft | 467 kts | 14° |
| 2026-05-07 19:35 | -44.49243 | -62.22195 | 34626 ft | 466 kts | 14° |
| 2026-05-07 19:35 | -44.43066 | -62.19450 | 34644 ft | 466 kts | 16° |
| 2026-05-07 19:36 | -44.36891 | -62.16704 | 34638 ft | 467 kts | 14° |
| 2026-05-07 19:36 | -44.30729 | -62.13972 | 34643 ft | 467 kts | 16° |
| 2026-05-07 19:37 | -44.24497 | -62.11189 | 34638 ft | 467 kts | 15° |
| 2026-05-07 19:37 | -44.18346 | -62.08479 | 34635 ft | 466 kts | 15° |
| 2026-05-07 19:38 | -44.12168 | -62.05765 | 34623 ft | 465 kts | 14° |
| 2026-05-07 19:38 | -44.06000 | -62.03057 | 34635 ft | 464 kts | 14° |
| 2026-05-07 19:39 | -43.99851 | -62.00353 | 34635 ft | 464 kts | 15° |
| 2026-05-07 19:39 | -43.94690 | -61.98094 | 34636 ft | 464 kts | 15° |
| 2026-05-07 19:40 | -43.88537 | -61.95401 | 34635 ft | 463 kts | 13° |
| 2026-05-07 19:40 | -43.82425 | -61.92738 | 34633 ft | 464 kts | 13° |
| 2026-05-07 19:41 | -43.76272 | -61.90057 | 34621 ft | 464 kts | 15° |
| 2026-05-07 19:41 | -43.70069 | -61.87366 | 34629 ft | 465 kts | 15° |
| 2026-05-07 19:42 | -43.63954 | -61.84716 | 34631 ft | 463 kts | 14° |
| 2026-05-07 19:42 | -43.57820 | -61.82067 | 34625 ft | 461 kts | 14° |
| 2026-05-07 19:43 | -43.51692 | -61.79421 | 34624 ft | 461 kts | 15° |
| 2026-05-07 19:43 | -43.45551 | -61.76781 | 34627 ft | 463 kts | 15° |
| 2026-05-07 19:44 | -43.39399 | -61.74136 | 34632 ft | 463 kts | 15° |
| 2026-05-07 19:44 | -43.33259 | -61.71500 | 34627 ft | 461 kts | 14° |
| 2026-05-07 19:45 | -43.27132 | -61.68881 | 34623 ft | 461 kts | 15° |
| 2026-05-07 19:45 | -43.20998 | -61.66261 | 34628 ft | 462 kts | 14° |
| 2026-05-07 19:46 | -43.14865 | -61.63646 | 34613 ft | 462 kts | 15° |
| 2026-05-07 19:46 | -43.08759 | -61.61046 | 34622 ft | 456 kts | 14° |
| 2026-05-07 19:47 | -43.02730 | -61.58490 | 34614 ft | 452 kts | 16° |
| 2026-05-07 19:47 | -42.96732 | -61.55951 | 34623 ft | 452 kts | 14° |
| 2026-05-07 19:48 | -42.90673 | -61.53393 | 34619 ft | 459 kts | 15° |
| 2026-05-07 19:48 | -42.86142 | -61.51479 | 34625 ft | 459 kts | 15° |
| 2026-05-07 19:49 | -42.81438 | -61.49492 | 34614 ft | 455 kts | 15° |
| 2026-05-07 19:49 | -42.75455 | -61.46975 | 34606 ft | 451 kts | 14° |
| 2026-05-07 19:50 | -42.69468 | -61.44461 | 34612 ft | 451 kts | 15° |
| 2026-05-07 19:50 | -42.63434 | -61.41933 | 34612 ft | 456 kts | 15° |
| 2026-05-07 19:51 | -42.57340 | -61.39384 | 34591 ft | 459 kts | 15° |
| 2026-05-07 19:51 | -42.51241 | -61.36835 | 34599 ft | 459 kts | 14° |
| 2026-05-07 19:52 | -42.45146 | -61.34290 | 34596 ft | 458 kts | 15° |
| 2026-05-07 19:52 | -42.39090 | -61.31771 | 34593 ft | 458 kts | 15° |
| 2026-05-07 19:53 | -42.32988 | -61.29241 | 34605 ft | 459 kts | 15° |
| 2026-05-07 19:53 | -42.26890 | -61.26717 | 34598 ft | 460 kts | 15° |
| 2026-05-07 19:54 | -42.20758 | -61.24183 | 34594 ft | 461 kts | 15° |
| 2026-05-07 19:54 | -42.14615 | -61.21652 | 34598 ft | 462 kts | 15° |
| 2026-05-07 19:55 | -42.08461 | -61.19116 | 34595 ft | 462 kts | 15° |
| 2026-05-07 19:55 | -42.02314 | -61.16590 | 34587 ft | 462 kts | 15° |
| 2026-05-07 19:56 | -41.96180 | -61.14075 | 34592 ft | 461 kts | 15° |
| 2026-05-07 19:56 | -41.90059 | -61.11571 | 34590 ft | 460 kts | 14° |
| 2026-05-07 19:57 | -41.83941 | -61.09071 | 34593 ft | 459 kts | 14° |
| 2026-05-07 19:57 | -41.77838 | -61.06587 | 34586 ft | 458 kts | 14° |
| 2026-05-07 19:58 | -41.71739 | -61.04105 | 34623 ft | 458 kts | 14° |
| 2026-05-07 19:58 | -41.68690 | -61.02867 | 34800 ft | 458 kts | 14° |
| 2026-05-07 19:58 | -41.65643 | -61.01630 | 35046 ft | 457 kts | 14° |
| 2026-05-07 19:59 | -41.62604 | -61.00398 | 35260 ft | 456 kts | 14° |
| 2026-05-07 19:59 | -41.59567 | -60.99169 | 35427 ft | 457 kts | 14° |
| 2026-05-07 19:59 | -41.56522 | -60.97937 | 35616 ft | 456 kts | 14° |
| 2026-05-07 19:59 | -41.53491 | -60.96712 | 35861 ft | 455 kts | 14° |
| 2026-05-07 20:00 | -41.47414 | -60.94259 | 36129 ft | 457 kts | 14° |
| 2026-05-07 20:00 | -41.44378 | -60.93036 | 36347 ft | 455 kts | 14° |
| 2026-05-07 20:00 | -41.41344 | -60.91815 | 36544 ft | 454 kts | 14° |
| 2026-05-07 20:01 | -41.35312 | -60.89392 | 36585 ft | 458 kts | 14° |
| 2026-05-07 20:01 | -41.29218 | -60.86947 | 36584 ft | 456 kts | 14° |
| 2026-05-07 20:02 | -41.23155 | -60.84518 | 36590 ft | 455 kts | 14° |
| 2026-05-07 20:02 | -41.17101 | -60.82099 | 36597 ft | 453 kts | 14° |
| 2026-05-07 20:03 | -41.11064 | -60.79692 | 36583 ft | 453 kts | 14° |
| 2026-05-07 20:03 | -41.05037 | -60.77293 | 36589 ft | 452 kts | 14° |
| 2026-05-07 20:04 | -40.99015 | -60.74900 | 36582 ft | 451 kts | 14° |
| 2026-05-07 20:04 | -40.93008 | -60.72512 | 36582 ft | 451 kts | 14° |
| 2026-05-07 20:05 | -40.87006 | -60.70141 | 36580 ft | 450 kts | 14° |
| 2026-05-07 20:05 | -40.81012 | -60.67775 | 36585 ft | 449 kts | 14° |
| 2026-05-07 20:06 | -40.75018 | -60.65411 | 36585 ft | 449 kts | 14° |
| 2026-05-07 20:06 | -40.69026 | -60.63053 | 36575 ft | 450 kts | 14° |
| 2026-05-07 20:07 | -40.63030 | -60.60697 | 36583 ft | 450 kts | 14° |
| 2026-05-07 20:07 | -40.57069 | -60.58359 | 36583 ft | 450 kts | 14° |
| 2026-05-07 20:08 | -40.51058 | -60.56006 | 36583 ft | 451 kts | 14° |
| 2026-05-07 20:08 | -40.45060 | -60.53593 | 36577 ft | 451 kts | 15° |
| 2026-05-07 20:09 | -40.39084 | -60.51039 | 36586 ft | 452 kts | 15° |
| 2026-05-07 20:10 | -40.30117 | -60.47202 | 36584 ft | 452 kts | 15° |
| 2026-05-07 20:10 | -40.24146 | -60.44669 | 36570 ft | 448 kts | 15° |
| 2026-05-07 20:11 | -40.18251 | -60.42183 | 36579 ft | 443 kts | 15° |
| 2026-05-07 20:11 | -40.12397 | -60.39720 | 36579 ft | 442 kts | 15° |
| 2026-05-07 20:12 | -40.06552 | -60.37266 | 36567 ft | 441 kts | 14° |
| 2026-05-07 20:12 | -40.00716 | -60.34818 | 36570 ft | 440 kts | 14° |
| 2026-05-07 20:13 | -39.94883 | -60.32376 | 36580 ft | 441 kts | 14° |
| 2026-05-07 20:13 | -39.89037 | -60.29933 | 36582 ft | 442 kts | 14° |
| 2026-05-07 20:14 | -39.83171 | -60.27487 | 36586 ft | 443 kts | 14° |
| 2026-05-07 20:14 | -39.77284 | -60.25035 | 36578 ft | 445 kts | 14° |
| 2026-05-07 20:15 | -39.71382 | -60.22581 | 36577 ft | 446 kts | 14° |
| 2026-05-07 20:15 | -39.65462 | -60.20125 | 36579 ft | 447 kts | 14° |
| 2026-05-07 20:16 | -39.59528 | -60.17667 | 36578 ft | 447 kts | 14° |
| 2026-05-07 20:16 | -39.53635 | -60.15223 | 36558 ft | 441 kts | 14° |
| 2026-05-07 20:17 | -39.47833 | -60.12829 | 36565 ft | 436 kts | 14° |
| 2026-05-07 20:17 | -39.42057 | -60.10453 | 36572 ft | 435 kts | 14° |
| 2026-05-07 20:18 | -39.36292 | -60.08084 | 36562 ft | 434 kts | 14° |
| 2026-05-07 20:18 | -39.30529 | -60.05718 | 36571 ft | 435 kts | 14° |
| 2026-05-07 20:19 | -39.24759 | -60.03353 | 36577 ft | 435 kts | 14° |
| 2026-05-07 20:19 | -39.19019 | -60.01005 | 36575 ft | 436 kts | 14° |
| 2026-05-07 20:20 | -39.13219 | -59.98636 | 36581 ft | 438 kts | 14° |
| 2026-05-07 20:20 | -39.07401 | -59.96264 | 36581 ft | 439 kts | 14° |
| 2026-05-07 20:21 | -39.01565 | -59.93888 | 36573 ft | 440 kts | 14° |
| 2026-05-07 20:21 | -38.95719 | -59.91512 | 36578 ft | 441 kts | 14° |
| 2026-05-07 20:22 | -38.89873 | -59.89140 | 36568 ft | 441 kts | 14° |
| 2026-05-07 20:22 | -38.84060 | -59.86778 | 36561 ft | 435 kts | 14° |
| 2026-05-07 20:23 | -38.78329 | -59.84464 | 36582 ft | 430 kts | 14° |
| 2026-05-07 20:23 | -38.72629 | -59.82167 | 36581 ft | 429 kts | 14° |
| 2026-05-07 20:24 | -38.66946 | -59.79879 | 36578 ft | 428 kts | 14° |
| 2026-05-07 20:24 | -38.61265 | -59.77594 | 36584 ft | 428 kts | 14° |
| 2026-05-07 20:25 | -38.55583 | -59.75312 | 36601 ft | 429 kts | 14° |
| 2026-05-07 20:25 | -38.49881 | -59.73026 | 36592 ft | 430 kts | 14° |
| 2026-05-07 20:26 | -38.44162 | -59.70737 | 36590 ft | 431 kts | 14° |
| 2026-05-07 20:26 | -38.39398 | -59.68833 | 36593 ft | 432 kts | 14° |
| 2026-05-07 20:27 | -38.33647 | -59.66537 | 36591 ft | 433 kts | 14° |
| 2026-05-07 20:27 | -38.27889 | -59.64245 | 36597 ft | 434 kts | 13° |
| 2026-05-07 20:28 | -38.22131 | -59.61962 | 36590 ft | 433 kts | 13° |
| 2026-05-07 20:28 | -38.16377 | -59.59683 | 36582 ft | 431 kts | 13° |
| 2026-05-07 20:29 | -38.10702 | -59.57436 | 36589 ft | 423 kts | 13° |
| 2026-05-07 20:29 | -38.05102 | -59.55223 | 36592 ft | 421 kts | 13° |
| 2026-05-07 20:30 | -37.99561 | -59.53039 | 36595 ft | 419 kts | 13° |
| 2026-05-07 20:30 | -37.93992 | -59.50848 | 36604 ft | 419 kts | 13° |
| 2026-05-07 20:31 | -37.88425 | -59.48660 | 36604 ft | 420 kts | 13° |
| 2026-05-07 20:31 | -37.82840 | -59.46469 | 36603 ft | 421 kts | 13° |
| 2026-05-07 20:32 | -37.77231 | -59.44271 | 36577 ft | 423 kts | 13° |
| 2026-05-07 20:32 | -37.71615 | -59.42073 | 36593 ft | 423 kts | 12° |
| 2026-05-07 20:33 | -37.65994 | -59.39877 | 36604 ft | 423 kts | 12° |
| 2026-05-07 20:33 | -37.60373 | -59.37685 | 36601 ft | 423 kts | 12° |
| 2026-05-07 20:34 | -37.54751 | -59.35495 | 36596 ft | 423 kts | 12° |
| 2026-05-07 20:34 | -37.49131 | -59.33310 | 36588 ft | 422 kts | 12° |
| 2026-05-07 20:35 | -37.43522 | -59.31131 | 36587 ft | 418 kts | 12° |
| 2026-05-07 20:35 | -37.38052 | -59.29007 | 36580 ft | 406 kts | 12° |
| 2026-05-07 20:36 | -37.32656 | -59.26922 | 36599 ft | 406 kts | 12° |
| 2026-05-07 20:36 | -37.27259 | -59.24838 | 36585 ft | 406 kts | 12° |
| 2026-05-07 20:36 | -37.24563 | -59.23797 | 38880 ft | 406 kts | 12° |
| 2026-05-07 20:37 | -37.21871 | -59.22716 | 38879 ft | 407 kts | 15° |
| 2026-05-07 20:37 | -37.16609 | -59.20000 | 38885 ft | 410 kts | 17° |
| 2026-05-07 20:38 | -37.11365 | -59.17167 | 38883 ft | 410 kts | 17° |
| 2026-05-07 20:38 | -37.06051 | -59.14328 | 36841 ft | 437 kts | 16° |
| 2026-05-07 20:38 | -37.03270 | -59.12872 | 36304 ft | 423 kts | 16° |
| 2026-05-07 20:39 | -37.00647 | -59.11455 | 36322 ft | 399 kts | 16° |
| 2026-05-07 20:39 | -36.98159 | -59.10094 | 36172 ft | 383 kts | 15° |
| 2026-05-07 20:39 | -36.95781 | -59.08830 | 35997 ft | 371 kts | 14° |
| 2026-05-07 20:39 | -36.93399 | -59.07588 | 35773 ft | 373 kts | 14° |
| 2026-05-07 20:40 | -36.90934 | -59.06318 | 34101 ft | 382 kts | 14° |
| 2026-05-07 20:40 | -36.88495 | -59.05059 | 32966 ft | 388 kts | 14° |
| 2026-05-07 20:40 | -36.85997 | -59.03762 | 32708 ft | 389 kts | 14° |
| 2026-05-07 20:40 | -36.83527 | -59.02467 | 32574 ft | 379 kts | 13° |
| 2026-05-07 20:41 | -36.81127 | -59.01201 | 32571 ft | 372 kts | 13° |
| 2026-05-07 20:41 | -36.76363 | -58.98709 | 32587 ft | 372 kts | 13° |
| 2026-05-07 20:42 | -36.71542 | -58.96200 | 32590 ft | 377 kts | 13° |
| 2026-05-07 20:42 | -36.66694 | -58.93673 | 32584 ft | 378 kts | 13° |
| 2026-05-07 20:43 | -36.61837 | -58.91141 | 32582 ft | 378 kts | 13° |
| 2026-05-07 20:43 | -36.56992 | -58.88620 | 32570 ft | 376 kts | 13° |
| 2026-05-07 20:44 | -36.52170 | -58.86114 | 32583 ft | 375 kts | 13° |
| 2026-05-07 20:44 | -36.47351 | -58.83614 | 32590 ft | 375 kts | 13° |
| 2026-05-07 20:45 | -36.42528 | -58.81115 | 32592 ft | 376 kts | 13° |
| 2026-05-07 20:45 | -36.37704 | -58.78617 | 32592 ft | 376 kts | 13° |
| 2026-05-07 20:46 | -36.32878 | -58.76122 | 32594 ft | 376 kts | 13° |
| 2026-05-07 20:46 | -36.30467 | -58.74877 | 32376 ft | 375 kts | 13° |
| 2026-05-07 20:46 | -36.28075 | -58.73639 | 32210 ft | 370 kts | 13° |
| 2026-05-07 20:47 | -36.23366 | -58.71204 | 32430 ft | 363 kts | 13° |
| 2026-05-07 20:47 | -36.21032 | -58.70003 | 32596 ft | 365 kts | 13° |
| 2026-05-07 20:47 | -36.18672 | -58.68795 | 32590 ft | 369 kts | 13° |
| 2026-05-07 20:48 | -36.13905 | -58.66348 | 32596 ft | 370 kts | 13° |
| 2026-05-07 20:48 | -36.09164 | -58.63908 | 32590 ft | 368 kts | 13° |
| 2026-05-07 20:49 | -36.04443 | -58.61485 | 32595 ft | 367 kts | 13° |
| 2026-05-07 20:49 | -35.99740 | -58.59075 | 32597 ft | 365 kts | 13° |
| 2026-05-07 20:50 | -35.95044 | -58.56673 | 32603 ft | 365 kts | 13° |
| 2026-05-07 20:50 | -35.90352 | -58.54276 | 32605 ft | 365 kts | 13° |
| 2026-05-07 20:51 | -35.85660 | -58.51881 | 32605 ft | 365 kts | 13° |
| 2026-05-07 20:51 | -35.80960 | -58.49485 | 32588 ft | 366 kts | 13° |
| 2026-05-07 20:52 | -35.76359 | -58.47128 | 32545 ft | 343 kts | 13° |
| 2026-05-07 20:52 | -35.74223 | -58.45942 | 32582 ft | 332 kts | 17° |
| 2026-05-07 20:52 | -35.72241 | -58.44560 | 32588 ft | 322 kts | 19° |
| 2026-05-07 20:52 | -35.70365 | -58.43144 | 32590 ft | 310 kts | 19° |
| 2026-05-07 20:53 | -35.68576 | -58.41771 | 32594 ft | 297 kts | 19° |
| 2026-05-07 20:53 | -35.66854 | -58.40458 | 32445 ft | 288 kts | 18° |
| 2026-05-07 20:53 | -35.65134 | -58.39171 | 31682 ft | 295 kts | 18° |
| 2026-05-07 20:53 | -35.63293 | -58.37829 | 30307 ft | 322 kts | 18° |
| 2026-05-07 20:54 | -35.61314 | -58.36395 | 28875 ft | 346 kts | 19° |
| 2026-05-07 20:54 | -35.59195 | -58.34846 | 27574 ft | 361 kts | 20° |
| 2026-05-07 20:54 | -35.56995 | -58.33228 | 26309 ft | 376 kts | 20° |
| 2026-05-07 20:54 | -35.54714 | -58.31546 | 25082 ft | 388 kts | 21° |
| 2026-05-07 20:55 | -35.52368 | -58.29814 | 23929 ft | 399 kts | 21° |
| 2026-05-07 20:55 | -35.49959 | -58.28036 | 22726 ft | 409 kts | 21° |
| 2026-05-07 20:55 | -35.47494 | -58.26220 | 21406 ft | 417 kts | 22° |
| 2026-05-07 20:55 | -35.44984 | -58.24373 | 20153 ft | 424 kts | 22° |
| 2026-05-07 20:56 | -35.42433 | -58.22499 | 18967 ft | 432 kts | 23° |
| 2026-05-07 20:56 | -35.39875 | -58.20615 | 18522 ft | 421 kts | 23° |
| 2026-05-07 20:56 | -35.37427 | -58.18803 | 18385 ft | 402 kts | 23° |
| 2026-05-07 20:56 | -35.35079 | -58.17068 | 18279 ft | 385 kts | 23° |
| 2026-05-07 20:57 | -35.32831 | -58.15415 | 18179 ft | 370 kts | 22° |
| 2026-05-07 20:57 | -35.30649 | -58.13821 | 17820 ft | 363 kts | 22° |
| 2026-05-07 20:57 | -35.28451 | -58.12230 | 16738 ft | 374 kts | 24° |
| 2026-05-07 20:57 | -35.26183 | -58.10596 | 15746 ft | 384 kts | 25° |
| 2026-05-07 20:58 | -35.23878 | -58.08925 | 15065 ft | 384 kts | 26° |
| 2026-05-07 20:58 | -35.21590 | -58.07259 | 14545 ft | 380 kts | 26° |
| 2026-05-07 20:58 | -35.19330 | -58.05611 | 14006 ft | 377 kts | 27° |
| 2026-05-07 20:58 | -35.17079 | -58.03973 | 13437 ft | 376 kts | 27° |
| 2026-05-07 20:59 | -35.14850 | -58.02351 | 12828 ft | 373 kts | 27° |
| 2026-05-07 20:59 | -35.12640 | -58.00744 | 12341 ft | 367 kts | 27° |
| 2026-05-07 20:59 | -35.10457 | -57.99158 | 11842 ft | 363 kts | 27° |
| 2026-05-07 20:59 | -35.08300 | -57.97593 | 11314 ft | 359 kts | 27° |
| 2026-05-07 21:00 | -35.06166 | -57.96045 | 10820 ft | 355 kts | 27° |
| 2026-05-07 21:00 | -35.04056 | -57.94517 | 10351 ft | 350 kts | 27° |
| 2026-05-07 21:00 | -35.01970 | -57.93007 | 9846 ft | 347 kts | 27° |
| 2026-05-07 21:00 | -34.99810 | -57.91762 | 9230 ft | 342 kts | 13° |
| 2026-05-07 21:01 | -34.97475 | -57.91609 | 8707 ft | 330 kts | 350° |
| 2026-05-07 21:01 | -34.95324 | -57.92307 | 8344 ft | 312 kts | 336° |
| 2026-05-07 21:01 | -34.93507 | -57.93597 | 8019 ft | 295 kts | 323° |
| 2026-05-07 21:01 | -34.91908 | -57.95078 | 7697 ft | 283 kts | 321° |
| 2026-05-07 21:02 | -34.90397 | -57.96530 | 7393 ft | 272 kts | 320° |
| 2026-05-07 21:02 | -34.88922 | -57.97953 | 7120 ft | 269 kts | 320° |
| 2026-05-07 21:02 | -34.87461 | -57.99356 | 6841 ft | 266 kts | 320° |
| 2026-05-07 21:02 | -34.86008 | -58.00742 | 6563 ft | 264 kts | 320° |
| 2026-05-07 21:03 | -34.84567 | -58.02112 | 6283 ft | 262 kts | 319° |
| 2026-05-07 21:03 | -34.83154 | -58.03449 | 6002 ft | 260 kts | 319° |
| 2026-05-07 21:03 | -34.81727 | -58.04798 | 5695 ft | 259 kts | 318° |
| 2026-05-07 21:03 | -34.80311 | -58.06134 | 5403 ft | 257 kts | 318° |
| 2026-05-07 21:04 | -34.78900 | -58.07465 | 5133 ft | 256 kts | 317° |
| 2026-05-07 21:04 | -34.77494 | -58.08790 | 4858 ft | 255 kts | 317° |
| 2026-05-07 21:04 | -34.76096 | -58.10106 | 4588 ft | 254 kts | 316° |
| 2026-05-07 21:04 | -34.74717 | -58.11402 | 4467 ft | 247 kts | 316° |
| 2026-05-07 21:05 | -34.73373 | -58.12662 | 4342 ft | 240 kts | 316° |
| 2026-05-07 21:05 | -34.72071 | -58.13883 | 4229 ft | 233 kts | 315° |
| 2026-05-07 21:05 | -34.70807 | -58.15071 | 4110 ft | 225 kts | 314° |
| 2026-05-07 21:05 | -34.69793 | -58.16462 | 3909 ft | 219 kts | 295° |
| 2026-05-07 21:06 | -34.68976 | -58.18046 | 3715 ft | 222 kts | 296° |
| 2026-05-07 21:06 | -34.68128 | -58.19605 | 3459 ft | 221 kts | 296° |
| 2026-05-07 21:06 | -34.67302 | -58.21142 | 3201 ft | 214 kts | 296° |
| 2026-05-07 21:06 | -34.66497 | -58.22620 | 3041 ft | 203 kts | 295° |
| 2026-05-07 21:07 | -34.65734 | -58.23992 | 3015 ft | 188 kts | 295° |
| 2026-05-07 21:07 | -34.65025 | -58.25267 | 3006 ft | 180 kts | 295° |
| 2026-05-07 21:07 | -34.64315 | -58.26548 | 2820 ft | 184 kts | 295° |
| 2026-05-07 21:07 | -34.63610 | -58.27807 | 2574 ft | 176 kts | 295° |
| 2026-05-07 21:08 | -34.62948 | -58.28988 | 2354 ft | 163 kts | 294° |
| 2026-05-07 21:08 | -34.62338 | -58.30076 | 2184 ft | 147 kts | 294° |
| 2026-05-07 21:08 | -34.61770 | -58.31096 | 1960 ft | 144 kts | 294° |
| 2026-05-07 21:08 | -34.61219 | -58.32085 | 1771 ft | 140 kts | 295° |
| 2026-05-07 21:09 | -34.60670 | -58.33072 | 1592 ft | 143 kts | 295° |
| 2026-05-07 21:09 | -34.60118 | -58.34060 | 1399 ft | 141 kts | 296° |
| 2026-05-07 21:09 | -34.59569 | -58.35047 | 1229 ft | 141 kts | 297° |
| 2026-05-07 21:09 | -34.59017 | -58.36025 | 1031 ft | 141 kts | 296° |
| 2026-05-07 21:10 | -34.58477 | -58.37033 | 820 ft | 142 kts | 299° |
| 2026-05-07 21:10 | -34.57915 | -58.38015 | 602 ft | 140 kts | 301° |
| 2026-05-07 21:10 | -34.57375 | -58.38965 | 424 ft | 136 kts | 300° |
| 2026-05-07 21:10 | -34.56839 | -58.39940 | 208 ft | 141 kts | 301° |
| 2026-05-07 21:11 | -34.56293 | -58.40905 | 38 ft | 136 kts | 300° |
| 2026-05-07 21:11 | -34.55818 | -58.41770 | 23 ft | 106 kts | 303° |
| 2026-05-07 21:11 | -34.55409 | -58.42496 | 27 ft | 10 kts | 328° |
| 2026-05-07 21:12 | -34.55363 | -58.42460 | 27 ft | 8 kts | 83° |
| 2026-05-07 21:12 | -34.55364 | -58.42428 | 24 ft | 1 kts | 96° |
| 2026-05-07 21:12 | -34.55365 | -58.42417 | 28 ft | 1 kts | 96° |
| 2026-05-07 21:12 | -34.55367 | -58.42403 | 24 ft | 5 kts | 98° |
| 2026-05-07 21:13 | -34.55387 | -58.42347 | 25 ft | 8 kts | 126° |
| 2026-05-07 21:13 | -34.55420 | -58.42294 | 24 ft | 8 kts | 127° |
| 2026-05-07 21:13 | -34.55453 | -58.42242 | 27 ft | 8 kts | 128° |
| 2026-05-07 21:13 | -34.55484 | -58.42193 | 24 ft | 7 kts | 127° |
| 2026-05-07 21:14 | -34.55514 | -58.42145 | 24 ft | 7 kts | 127° |
| 2026-05-07 21:14 | -34.55543 | -58.42098 | 27 ft | 7 kts | 127° |
| 2026-05-07 21:14 | -34.55572 | -58.42052 | 28 ft | 7 kts | 126° |
| 2026-05-07 21:14 | -34.55600 | -58.42001 | 28 ft | 9 kts | 123° |
| 2026-05-07 21:15 | -34.55635 | -58.41937 | 24 ft | 9 kts | 124° |
| 2026-05-07 21:15 | -34.55671 | -58.41874 | 24 ft | 9 kts | 124° |
| 2026-05-07 21:15 | -34.55706 | -58.41812 | 27 ft | 9 kts | 124° |
| 2026-05-07 21:15 | -34.55737 | -58.41750 | 28 ft | 9 kts | 117° |
| 2026-05-07 21:16 | -34.55764 | -58.41687 | 25 ft | 8 kts | 116° |
| 2026-05-07 21:16 | -34.55789 | -58.41626 | 24 ft | 8 kts | 117° |
| 2026-05-07 21:16 | -34.55814 | -58.41567 | 26 ft | 8 kts | 117° |
| 2026-05-07 21:16 | -34.55838 | -58.41509 | 28 ft | 8 kts | 117° |
| 2026-05-07 21:17 | -34.55861 | -58.41454 | 24 ft | 7 kts | 117° |
| 2026-05-07 21:17 | -34.55883 | -58.41401 | 28 ft | 7 kts | 117° |
| 2026-05-07 21:17 | -34.55905 | -58.41349 | 24 ft | 7 kts | 117° |
| 2026-05-07 21:17 | -34.55895 | -58.41304 | 24 ft | 5 kts | 40° |
| 2026-05-07 21:18 | -34.55861 | -58.41282 | 28 ft | 8 kts | 12° |
| 2026-05-07 21:18 | -34.55815 | -58.41321 | 28 ft | 9 kts | 302° |
| 2026-05-07 21:18 | -34.55783 | -58.41381 | 25 ft | 8 kts | 305° |
| 2026-05-07 21:18 | -34.55762 | -58.41418 | 28 ft | 2 kts | 304° |
| 2026-05-07 21:19 | -34.55754 | -58.41425 | 26 ft | 1 kts | 338° |
| 2026-05-07 21:19 | -34.55743 | -58.41422 | 26 ft | 2 kts | 21° |
| 2026-05-07 21:19 | -34.55732 | -58.41414 | 24 ft | 2 kts | 30° |
| 2026-05-07 21:19 | -34.55723 | -58.41407 | 24 ft | 1 kts | 31° |
| 2026-05-07 21:20 | -34.55718 | -58.41404 | 24 ft | 1 kts | 31° |
| 2026-05-07 21:20 | -34.55717 | -58.41403 | 24 ft | 0 kts | 31° |